Terminal Aerodrome Forecast
Issued by NWS Omaha/Valley, NE

Home | Current Version | Previous Version | Graphics & Text | Print | Product List | Glossary On
Versions: 1 2 3 4 5 6 7 8 9 10 11 12 13 14 15 16 17 18 19 20 21 22 23 24
000
FTUS43 KOAX 150031 AAA
TAFOFK
TAF AMD
KOFK 150031Z 1501/1524 33017G26KT P6SM BKN020 OVC040
      TEMPO 1501/1504 5SM -SN
     FM150600 34019G27KT P6SM -SN BKN025 OVC035
     FM151000 33017G28KT P6SM BKN025
     FM151600 33018G27KT P6SM SCT030=

USA.gov is the U.S. government's official web portal to all federal, state and local government web resources and services.